Time;durP1;ratioP1;P1;durP2;ratioP2;P2;SDS_P1;SDS_P2;PMS_P1;PMS_P2;Temp;Humidity;BMP_temperature;BMP_pressure;BME280_temperature;BME280_humidity;BME280_pressure;Samples;Min_cycle;Max_cycle;Signal;HPM_P1;HPM_P2
2022/07/17 00:02:05;;;;;;;1.33;0.80;;;20.80;55.60;;;;;;5092560;28;20410;-68
2022/07/17 00:04:30;;;;;;;0.85;0.80;;;20.80;55.80;;;;;;5093016;28;20032;-68
2022/07/17 00:06:56;;;;;;;1.08;0.70;;;20.80;55.40;;;;;;5092237;28;20441;-69
2022/07/17 00:09:21;;;;;;;0.98;0.90;;;20.70;54.90;;;;;;5093001;28;20024;-68
2022/07/17 00:11:47;;;;;;;1.65;0.90;;;20.70;55.00;;;;;;5092724;28;20484;-68
2022/07/17 00:14:13;;;;;;;0.75;0.75;;;20.70;54.40;;;;;;5092153;28;20345;-68
2022/07/17 00:16:38;;;;;;;0.88;0.88;;;20.70;54.00;;;;;;5092453;28;20103;-68
2022/07/17 00:19:04;;;;;;;1.02;0.60;;;20.80;53.70;;;;;;5092146;28;20024;-69
2022/07/17 00:21:30;;;;;;;2.45;0.60;;;20.80;52.90;;;;;;5092680;28;20028;-68
2022/07/17 00:23:55;;;;;;;1.25;0.80;;;20.80;53.10;;;;;;5092301;28;20032;-69
2022/07/17 00:26:21;;;;;;;1.30;0.88;;;20.80;53.10;;;;;;5092369;28;20461;-69
2022/07/17 00:28:46;;;;;;;1.15;0.80;;;20.70;53.40;;;;;;5092648;28;20044;-68
2022/07/17 00:31:12;;;;;;;2.83;0.70;;;20.70;53.50;;;;;;5091863;28;20103;-67
2022/07/17 00:33:37;;;;;;;1.08;0.90;;;20.70;53.70;;;;;;5092352;28;20032;-67
2022/07/17 00:36:03;;;;;;;0.70;0.60;;;20.60;54.00;;;;;;5092026;28;20035;-68
2022/07/17 00:38:29;;;;;;;1.88;0.80;;;20.60;53.00;;;;;;5092604;28;20468;-68
2022/07/17 00:40:58;;;;;;;1.60;0.77;;;20.60;53.20;;;;;;5091984;28;20028;-68
2022/07/17 00:43:25;;;;;;;3.90;0.70;;;20.60;53.10;;;;;;5091377;28;20345;-68
2022/07/17 00:46:02;;;;;;;2.35;0.82;;;20.60;53.30;;;;;;5092311;28;20036;-69
2022/07/17 00:48:28;;;;;;;2.08;0.90;;;20.50;53.60;;;;;;5092739;28;20074;-68
2022/07/17 00:50:55;;;;;;;0.93;0.85;;;20.50;54.10;;;;;;5090924;28;20082;-69
2022/07/17 00:53:21;;;;;;;1.42;0.82;;;20.40;53.90;;;;;;5091995;28;20023;-68
2022/07/17 00:55:48;;;;;;;1.42;1.00;;;20.40;54.10;;;;;;5092294;28;20032;-68
2022/07/17 00:58:22;;;;;;;0.68;0.60;;;20.30;53.90;;;;;;5091581;28;20472;-68
2022/07/17 01:00:53;;;;;;;0.70;0.70;;;20.30;53.70;;;;;;5092375;28;20346;-68
2022/07/17 01:03:20;;;;;;;;;;;20.30;53.40;;;;;;5091548;28;20407;-68
2022/07/17 01:05:46;;;;;;;0.57;0.57;;;20.30;53.40;;;;;;5092392;28;19904;-68
2022/07/17 01:08:12;;;;;;;0.70;0.70;;;20.30;53.50;;;;;;5091666;28;20356;-68
2022/07/17 01:10:38;;;;;;;0.85;0.75;;;20.30;53.50;;;;;;5096163;28;20055;-67
2022/07/17 01:13:05;;;;;;;0.88;0.80;;;20.30;53.00;;;;;;5095326;28;20020;-68
2022/07/17 01:15:33;;;;;;;0.93;0.70;;;20.30;53.40;;;;;;5095935;28;20024;-68
2022/07/17 01:18:03;;;;;;;0.98;0.75;;;20.30;53.20;;;;;;5095487;28;20036;-68
2022/07/17 01:20:29;;;;;;;1.35;1.17;;;20.30;53.20;;;;;;5096032;28;20035;-68
2022/07/17 01:22:55;;;;;;;0.88;0.70;;;20.30;53.30;;;;;;5095101;28;20024;-68
2022/07/17 01:25:22;;;;;;;0.50;0.50;;;20.30;53.10;;;;;;5095531;28;20035;-68
2022/07/17 01:27:49;;;;;;;1.77;0.88;;;20.20;52.90;;;;;;5095674;28;20028;-67
2022/07/17 01:30:14;;;;;;;0.63;0.60;;;20.20;52.80;;;;;;5095413;28;20396;-67
2022/07/17 01:32:41;;;;;;;0.63;0.55;;;20.20;53.10;;;;;;5095569;28;20028;-68
2022/07/17 01:35:10;;;;;;;1.55;0.65;;;20.20;53.30;;;;;;5095162;28;20056;-68
2022/07/17 01:37:37;;;;;;;1.10;0.80;;;20.20;52.70;;;;;;5095080;28;20028;-68
2022/07/17 01:40:04;;;;;;;0.60;0.60;;;20.20;53.00;;;;;;5094904;28;20031;-68
2022/07/17 01:42:30;;;;;;;0.60;0.60;;;20.20;53.30;;;;;;5095508;28;20099;-67
2022/07/17 01:44:56;;;;;;;1.10;0.70;;;20.20;53.70;;;;;;5094948;28;20107;-68
2022/07/17 01:47:23;;;;;;;1.45;0.68;;;20.10;53.10;;;;;;5095058;28;20473;-67
2022/07/17 01:49:52;;;;;;;0.70;0.57;;;20.10;53.50;;;;;;5095098;28;20036;-67
2022/07/17 01:52:17;;;;;;;1.15;0.68;;;20.10;53.70;;;;;;5093570;28;20475;-68
2022/07/17 01:54:44;;;;;;;1.55;1.00;;;20.00;53.60;;;;;;5095120;28;20032;-68
2022/07/17 01:57:10;;;;;;;1.20;0.50;;;20.00;53.80;;;;;;5094639;28;20035;-68
2022/07/17 01:59:37;;;;;;;1.00;0.60;;;20.00;53.80;;;;;;5095264;28;20032;-67
2022/07/17 02:02:04;;;;;;;1.58;0.70;;;20.00;53.70;;;;;;5094561;28;20028;-68
2022/07/17 02:04:34;;;;;;;2.83;0.82;;;20.00;53.60;;;;;;5095054;28;20039;-68
2022/07/17 02:07:00;;;;;;;3.03;0.98;;;20.00;53.40;;;;;;5094412;28;20092;-67
2022/07/17 02:09:26;;;;;;;1.08;0.60;;;20.00;54.00;;;;;;5094820;28;20110;-67
2022/07/17 02:11:52;;;;;;;0.90;0.70;;;20.00;54.20;;;;;;5094909;28;20099;-67
2022/07/17 02:14:17;;;;;;;1.20;1.00;;;20.00;54.40;;;;;;5094805;28;20036;-67
2022/07/17 02:16:43;;;;;;;2.33;0.75;;;19.90;54.80;;;;;;5094757;28;20035;-68
2022/07/17 02:19:09;;;;;;;0.95;0.70;;;19.80;55.00;;;;;;5094363;28;20503;-68
2022/07/17 02:21:35;;;;;;;1.00;0.90;;;19.80;55.10;;;;;;5094055;28;20028;-67
2022/07/17 02:24:00;;;;;;;1.25;0.98;;;19.70;55.20;;;;;;5093967;28;20050;-68
2022/07/17 02:26:26;;;;;;;1.02;0.75;;;19.70;55.40;;;;;;5094487;28;20028;-67
2022/07/17 02:28:52;;;;;;;1.05;0.60;;;19.60;55.60;;;;;;5094026;28;20055;-67
2022/07/17 02:31:17;;;;;;;1.55;0.93;;;19.50;56.40;;;;;;5093823;28;20455;-67
2022/07/17 02:33:43;;;;;;;1.00;0.70;;;19.50;56.10;;;;;;5094158;28;20024;-67
2022/07/17 02:36:09;;;;;;;0.70;0.70;;;19.50;56.50;;;;;;5094028;28;20039;-68
2022/07/17 02:38:34;;;;;;;0.85;0.80;;;19.40;56.60;;;;;;5094281;28;20032;-68
2022/07/17 02:41:00;;;;;;;1.30;0.90;;;19.40;57.30;;;;;;5093715;28;20123;-68
2022/07/17 02:43:26;;;;;;;0.85;0.80;;;19.40;58.10;;;;;;5094164;28;20027;-68
2022/07/17 02:45:51;;;;;;;1.48;0.90;;;19.40;58.50;;;;;;5094212;28;20024;-67
2022/07/17 02:48:17;;;;;;;3.10;0.98;;;19.40;58.70;;;;;;5093669;28;20031;-67
2022/07/17 02:50:42;;;;;;;1.23;1.05;;;19.50;59.10;;;;;;5094408;28;20031;-67
2022/07/17 02:53:08;;;;;;;1.60;1.10;;;19.50;59.80;;;;;;5093747;28;20032;-68
2022/07/17 02:55:34;;;;;;;2.22;0.98;;;19.50;60.20;;;;;;5093584;28;20020;-67
2022/07/17 02:57:59;;;;;;;1.15;0.98;;;19.40;60.70;;;;;;5093486;28;20028;-68
2022/07/17 03:00:26;;;;;;;1.90;0.90;;;19.40;61.00;;;;;;5093577;28;20028;-68
2022/07/17 03:02:53;;;;;;;3.42;0.95;;;19.30;61.40;;;;;;5093460;28;20035;-68
2022/07/17 03:05:19;;;;;;;2.10;1.00;;;19.30;62.20;;;;;;5093430;28;20032;-68
2022/07/17 03:07:45;;;;;;;1.02;0.95;;;19.20;62.60;;;;;;5093794;28;20106;-68
2022/07/17 03:10:12;;;;;;;1.58;1.02;;;19.20;62.70;;;;;;5093180;28;20081;-68
2022/07/17 03:12:37;;;;;;;1.85;0.93;;;19.10;62.90;;;;;;5093753;28;20077;-68
2022/07/17 03:15:04;;;;;;;1.58;0.93;;;19.00;62.80;;;;;;5093360;28;20028;-68
2022/07/17 03:17:30;;;;;;;3.45;0.98;;;19.00;63.20;;;;;;5093477;28;20081;-68
2022/07/17 03:19:56;;;;;;;0.90;0.80;;;19.00;63.50;;;;;;5093724;28;20028;-68
2022/07/17 03:22:21;;;;;;;1.10;1.00;;;18.90;63.40;;;;;;5093217;28;20372;-68
2022/07/17 03:24:47;;;;;;;1.67;0.82;;;18.90;63.90;;;;;;5093219;28;20024;-68
2022/07/17 03:27:13;;;;;;;0.95;0.85;;;18.90;63.80;;;;;;5093088;28;20028;-68
2022/07/17 03:29:38;;;;;;;0.77;0.77;;;18.80;64.00;;;;;;5093424;28;20075;-68
2022/07/17 03:32:04;;;;;;;0.82;0.82;;;18.80;64.30;;;;;;5092866;28;20150;-68
2022/07/17 03:34:30;;;;;;;0.65;0.65;;;18.70;64.50;;;;;;5093696;28;20062;-68
2022/07/17 03:36:56;;;;;;;1.85;1.08;;;18.70;64.80;;;;;;5092458;28;20024;-68
2022/07/17 03:39:21;;;;;;;1.73;1.00;;;18.70;65.50;;;;;;5092479;28;20071;-67
2022/07/17 03:41:47;;;;;;;1.05;0.73;;;18.70;65.50;;;;;;5093220;28;20051;-67
2022/07/17 03:44:13;;;;;;;1.45;1.10;;;18.60;65.90;;;;;;5092511;28;20090;-67
2022/07/17 03:46:39;;;;;;;1.25;1.15;;;18.60;65.90;;;;;;5093122;28;20028;-68
2022/07/17 03:49:05;;;;;;;0.90;0.88;;;18.60;66.40;;;;;;5092677;28;20081;-67
2022/07/17 03:51:31;;;;;;;1.90;0.98;;;18.60;66.70;;;;;;5093160;28;20032;-67
2022/07/17 03:53:56;;;;;;;0.98;0.77;;;18.50;67.00;;;;;;5093177;28;20020;-68
2022/07/17 03:56:22;;;;;;;0.98;0.90;;;18.60;67.30;;;;;;5092465;28;20377;-68
2022/07/17 03:58:48;;;;;;;2.15;0.85;;;18.50;67.50;;;;;;5093056;28;20028;-68
2022/07/17 04:01:14;;;;;;;1.95;0.90;;;18.60;67.70;;;;;;5092404;28;20028;-68
2022/07/17 04:03:39;;;;;;;1.17;0.90;;;18.50;67.80;;;;;;5092764;28;20020;-68
2022/07/17 04:06:05;;;;;;;2.47;1.30;;;18.50;67.90;;;;;;5092944;28;20028;-68
2022/07/17 04:08:31;;;;;;;1.35;1.17;;;18.50;68.70;;;;;;5093111;28;20036;-68
2022/07/17 04:10:56;;;;;;;1.20;0.90;;;18.50;68.10;;;;;;5092677;28;20035;-68
2022/07/17 04:13:22;;;;;;;1.05;0.90;;;18.50;68.10;;;;;;5092512;28;20032;-68
2022/07/17 04:15:56;;;;;;;0.77;0.75;;;18.50;68.20;;;;;;5093151;28;20040;-68
2022/07/17 04:18:29;;;;;;;1.15;0.90;;;18.60;68.20;;;;;;5091914;28;20543;-68
2022/07/17 04:20:58;;;;;;;1.65;1.17;;;18.60;68.00;;;;;;5092639;28;20451;-68
2022/07/17 04:23:24;;;;;;;1.38;1.10;;;18.70;67.90;;;;;;5092391;28;20032;-68
2022/07/17 04:25:50;;;;;;;1.50;0.90;;;18.80;67.50;;;;;;5092471;28;20031;-68
2022/07/17 04:28:16;;;;;;;2.22;0.90;;;18.90;67.50;;;;;;5092083;28;20107;-67
2022/07/17 04:30:41;;;;;;;1.48;1.30;;;19.00;66.80;;;;;;5092855;28;20062;-68
2022/07/17 04:33:08;;;;;;;1.20;0.75;;;19.10;66.00;;;;;;5092403;28;20468;-68
2022/07/17 04:35:34;;;;;;;2.10;0.80;;;19.20;65.70;;;;;;5092324;28;20380;-68
2022/07/17 04:38:01;;;;;;;1.08;0.98;;;19.30;65.20;;;;;;5092702;28;20023;-68
2022/07/17 04:40:27;;;;;;;8.43;1.38;;;19.50;64.70;;;;;;5092074;28;20020;-68
2022/07/17 04:42:52;;;;;;;1.38;1.00;;;19.60;64.10;;;;;;5092550;28;20491;-68
2022/07/17 04:45:18;;;;;;;1.52;1.13;;;19.70;63.50;;;;;;5095864;28;20028;-68
2022/07/17 04:47:44;;;;;;;1.20;0.90;;;19.80;63.20;;;;;;5096263;28;20548;-68
2022/07/17 04:50:10;;;;;;;2.85;0.90;;;19.90;62.60;;;;;;5095201;28;20047;-69
2022/07/17 04:52:36;;;;;;;1.10;1.00;;;20.10;62.10;;;;;;5094766;28;20024;-68
2022/07/17 04:55:02;;;;;;;1.40;1.00;;;20.20;61.80;;;;;;5096647;28;20028;-68
2022/07/17 04:57:27;;;;;;;4.53;1.23;;;20.40;61.10;;;;;;5095266;28;20028;-68
2022/07/17 04:59:53;;;;;;;1.95;1.15;;;20.50;60.50;;;;;;5095383;28;20468;-68
2022/07/17 05:02:19;;;;;;;1.15;0.80;;;20.70;59.80;;;;;;5095135;28;20016;-68
2022/07/17 05:04:44;;;;;;;1.20;0.85;;;20.90;59.30;;;;;;5095590;28;20024;-68
2022/07/17 05:07:10;;;;;;;2.47;0.93;;;21.10;58.80;;;;;;5095402;28;20028;-67
2022/07/17 05:09:36;;;;;;;1.80;0.85;;;21.20;58.50;;;;;;5095926;28;20028;-67
2022/07/17 05:12:01;;;;;;;2.40;1.10;;;21.40;58.10;;;;;;5095587;28;20067;-67
2022/07/17 05:14:27;;;;;;;1.90;0.80;;;21.70;57.60;;;;;;5095187;28;20022;-67
2022/07/17 05:16:53;;;;;;;0.95;0.80;;;21.90;56.80;;;;;;5095484;28;20031;-68
2022/07/17 05:19:18;;;;;;;1.00;0.77;;;22.10;56.20;;;;;;5094704;28;20028;-68
2022/07/17 05:21:44;;;;;;;1.35;0.70;;;22.40;55.30;;;;;;5095237;28;20538;-68
2022/07/17 05:24:10;;;;;;;1.25;0.90;;;22.60;54.30;;;;;;5095097;28;20479;-68
2022/07/17 05:26:36;;;;;;;1.10;0.98;;;22.90;54.30;;;;;;5095422;28;20103;-68
2022/07/17 05:29:02;;;;;;;0.80;0.80;;;23.20;53.50;;;;;;5095670;28;20086;-67
2022/07/17 05:31:27;;;;;;;1.45;0.88;;;23.40;52.00;;;;;;5092435;28;20444;-67
2022/07/17 05:33:53;;;;;;;1.20;0.80;;;23.80;51.90;;;;;;5094590;28;20376;-66
2022/07/17 05:36:19;;;;;;;1.90;0.93;;;24.10;50.90;;;;;;5094901;28;20472;-67
2022/07/17 05:38:44;;;;;;;0.82;0.60;;;24.40;49.80;;;;;;5094948;28;20058;-67
2022/07/17 05:41:10;;;;;;;0.85;0.70;;;24.70;49.20;;;;;;5095011;28;20028;-66
2022/07/17 05:43:35;;;;;;;1.98;0.88;;;25.00;48.30;;;;;;5095251;28;20401;-67
2022/07/17 05:46:01;;;;;;;1.25;0.80;;;25.30;47.50;;;;;;5095171;28;20085;-66
2022/07/17 05:48:29;;;;;;;1.73;0.90;;;25.70;47.30;;;;;;5094702;28;20417;-66
2022/07/17 05:50:55;;;;;;;0.73;0.60;;;26.00;45.50;;;;;;5095256;28;20480;-66
2022/07/17 05:53:20;;;;;;;1.55;0.80;;;26.30;45.70;;;;;;5094771;28;20097;-66
2022/07/17 05:55:46;;;;;;;0.88;0.70;;;26.70;44.00;;;;;;5093686;28;20028;-66
2022/07/17 05:58:12;;;;;;;2.25;0.90;;;27.10;43.60;;;;;;5094426;28;20119;-66
2022/07/17 06:00:37;;;;;;;1.02;0.80;;;27.40;42.60;;;;;;5094742;28;20031;-67
2022/07/17 06:03:03;;;;;;;0.68;0.68;;;27.80;41.70;;;;;;5094652;28;20028;-66
2022/07/17 06:05:29;;;;;;;0.77;0.70;;;28.10;41.10;;;;;;5094396;28;20039;-67
2022/07/17 06:07:56;;;;;;;0.70;0.50;;;28.40;40.50;;;;;;5094808;28;20036;-67
2022/07/17 06:10:23;;;;;;;2.67;0.90;;;28.70;39.80;;;;;;5094433;28;20024;-67
2022/07/17 06:12:49;;;;;;;0.90;0.70;;;29.00;38.00;;;;;;5094876;28;20422;-67
2022/07/17 06:15:15;;;;;;;0.60;0.60;;;29.30;37.40;;;;;;5094425;28;20443;-67
2022/07/17 06:17:41;;;;;;;1.40;0.95;;;29.40;38.30;;;;;;5094240;28;20494;-67
2022/07/17 06:20:08;;;;;;;0.52;0.50;;;29.80;37.30;;;;;;5094664;28;20028;-67
2022/07/17 06:22:34;;;;;;;0.80;0.70;;;29.80;35.50;;;;;;5094210;28;20077;-67
2022/07/17 06:24:59;;;;;;;0.55;0.55;;;30.00;36.10;;;;;;5094638;28;20017;-67
2022/07/17 06:27:25;;;;;;;0.50;0.50;;;29.90;33.40;;;;;;5093930;28;20032;-66
2022/07/17 06:29:51;;;;;;;0.52;0.52;;;29.70;34.50;;;;;;5094344;28;20043;-66
2022/07/17 06:32:16;;;;;;;0.50;0.50;;;29.80;33.90;;;;;;5092884;28;20024;-67
2022/07/17 06:34:43;;;;;;;1.58;0.80;;;30.10;34.50;;;;;;5094461;28;20031;-66
2022/07/17 06:37:08;;;;;;;0.70;0.40;;;30.30;33.70;;;;;;5094241;28;20384;-66
2022/07/17 06:39:34;;;;;;;1.13;0.45;;;30.30;33.50;;;;;;5093379;28;20028;-67
2022/07/17 06:42:00;;;;;;;0.70;0.50;;;30.30;34.10;;;;;;5094026;28;20073;-67
2022/07/17 06:44:26;;;;;;;1.27;0.65;;;30.60;33.00;;;;;;5093625;28;20030;-70
2022/07/17 06:46:52;;;;;;;2.33;0.70;;;30.70;33.00;;;;;;5094023;28;20032;-70
2022/07/17 06:49:17;;;;;;;0.60;0.60;;;30.80;33.50;;;;;;5093348;28;20025;-69
2022/07/17 06:51:45;;;;;;;0.52;0.50;;;30.70;33.20;;;;;;5093691;28;20050;-68
2022/07/17 06:54:14;;;;;;;0.70;0.47;;;31.10;32.90;;;;;;5093876;28;20429;-68
2022/07/17 06:56:41;;;;;;;0.98;0.57;;;31.10;32.60;;;;;;5093909;28;20415;-68
2022/07/17 06:59:07;;;;;;;0.60;0.60;;;31.50;32.10;;;;;;5093889;28;20028;-68
2022/07/17 07:01:34;;;;;;;0.63;0.60;;;31.60;31.70;;;;;;5093323;28;20449;-69
2022/07/17 07:03:59;;;;;;;1.13;0.57;;;31.30;31.50;;;;;;5093452;28;20410;-69
2022/07/17 07:06:25;;;;;;;0.63;0.50;;;31.70;32.80;;;;;;5092612;28;20035;-69
2022/07/17 07:08:51;;;;;;;0.40;0.40;;;32.10;32.20;;;;;;5093439;28;20048;-69
2022/07/17 07:11:16;;;;;;;0.88;0.70;;;32.40;32.00;;;;;;5093142;28;20132;-69
2022/07/17 07:13:42;;;;;;;0.45;0.38;;;32.60;32.00;;;;;;5093212;28;20437;-69
2022/07/17 07:16:08;;;;;;;0.80;0.60;;;32.80;31.40;;;;;;5093522;28;20054;-69
2022/07/17 07:18:33;;;;;;;0.57;0.50;;;33.10;30.90;;;;;;5093044;28;20039;-68
2022/07/17 07:20:59;;;;;;;1.17;0.57;;;33.00;29.90;;;;;;5093241;28;20032;-68
2022/07/17 07:23:24;;;;;;;0.70;0.50;;;33.00;30.10;;;;;;5092916;28;20437;-69
2022/07/17 07:25:50;;;;;;;1.75;0.55;;;32.70;29.70;;;;;;5093228;28;20054;-69
2022/07/17 07:28:16;;;;;;;1.48;0.60;;;33.20;30.00;;;;;;5092628;28;20028;-70
2022/07/17 07:30:42;;;;;;;1.23;0.40;;;33.60;29.30;;;;;;5092511;28;20365;-69
2022/07/17 07:33:08;;;;;;;9.35;0.82;;;34.10;28.50;;;;;;5092829;28;20109;-69
2022/07/17 07:35:33;;;;;;;1.20;0.50;;;34.10;28.30;;;;;;5092266;28;20027;-70
2022/07/17 07:37:59;;;;;;;2.30;0.60;;;34.50;28.00;;;;;;5092469;28;20383;-70
2022/07/17 07:40:25;;;;;;;0.73;0.45;;;35.00;28.20;;;;;;5092641;28;20411;-70
2022/07/17 07:42:50;;;;;;;2.05;1.23;;;35.20;27.40;;;;;;5095304;28;20035;-70
2022/07/17 07:45:16;;;;;;;2.20;0.52;;;35.10;26.90;;;;;;5077180;28;20082;-70
2022/07/17 07:47:43;;;;;;;0.52;0.47;;;35.10;26.70;;;;;;5072641;28;20036;-69
2022/07/17 07:50:10;;;;;;;2.78;1.58;;;35.70;27.30;;;;;;5092122;28;20384;-69
2022/07/17 07:52:36;;;;;;;1.10;0.65;;;36.00;26.80;;;;;;5092368;28;20411;-69
2022/07/17 07:55:01;;;;;;;1.17;0.52;;;36.30;26.90;;;;;;5092666;28;20410;-69
2022/07/17 07:57:27;;;;;;;1.33;0.60;;;37.00;26.20;;;;;;5099960;28;20464;-69
2022/07/17 07:59:52;;;;;;;0.90;0.55;;;37.60;26.00;;;;;;5104385;28;20024;-69
2022/07/17 08:02:18;;;;;;;0.65;0.50;;;38.50;26.00;;;;;;5101880;28;20027;-70
2022/07/17 08:04:43;;;;;;;0.60;0.60;;;39.00;25.80;;;;;;5102051;28;20034;-70
2022/07/17 08:07:09;;;;;;;1.00;0.50;;;39.40;25.00;;;;;;5103140;28;20032;-70
2022/07/17 08:09:35;;;;;;;0.85;0.50;;;39.40;24.80;;;;;;5102705;28;20060;-70
2022/07/17 08:12:00;;;;;;;3.35;0.80;;;39.70;24.50;;;;;;5102442;28;20062;-69
2022/07/17 08:14:26;;;;;;;2.85;1.13;;;40.30;24.30;;;;;;5101117;28;20051;-69
2022/07/17 08:16:51;;;;;;;1.40;0.93;;;40.40;24.00;;;;;;5103766;28;20546;-69
2022/07/17 08:19:17;;;;;;;0.68;0.60;;;40.80;23.70;;;;;;5103230;28;20028;-69
2022/07/17 08:21:43;;;;;;;0.90;0.55;;;40.90;23.30;;;;;;5105681;28;20399;-69
2022/07/17 08:24:08;;;;;;;0.40;0.40;;;41.10;23.40;;;;;;5104993;28;20380;-69
2022/07/17 08:26:34;;;;;;;3.53;0.65;;;41.10;23.20;;;;;;5111015;28;20112;-69
2022/07/17 08:29:00;;;;;;;0.82;0.60;;;40.80;23.20;;;;;;5095035;28;20040;-69
2022/07/17 08:31:25;;;;;;;0.68;0.38;;;40.20;22.80;;;;;;5095835;28;20063;-69
2022/07/17 08:33:51;;;;;;;1.20;0.40;;;39.90;23.20;;;;;;5096447;28;20081;-69
2022/07/17 08:36:16;;;;;;;1.90;1.80;;;39.50;23.20;;;;;;5096329;28;20066;-69
2022/07/17 08:38:42;;;;;;;1.25;0.52;;;39.30;23.90;;;;;;5096260;28;20031;-70
2022/07/17 08:41:10;;;;;;;0.57;0.50;;;39.40;24.50;;;;;;5096336;28;20508;-70
2022/07/17 08:43:36;;;;;;;3.13;0.63;;;39.50;24.30;;;;;;5095945;28;20028;-72
2022/07/17 08:46:02;;;;;;;2.30;0.70;;;39.20;23.90;;;;;;5096583;28;20020;-70
2022/07/17 08:48:30;;;;;;;0.43;0.40;;;38.60;24.10;;;;;;5096104;28;20046;-71
2022/07/17 08:50:59;;;;;;;0.73;0.73;;;38.30;24.30;;;;;;5096449;28;20037;-69
2022/07/17 08:53:25;;;;;;;2.03;0.63;;;37.20;24.60;;;;;;5094445;28;20020;-71
2022/07/17 08:55:51;;;;;;;2.05;0.43;;;36.30;24.90;;;;;;5096113;28;20396;-70
2022/07/17 08:58:17;;;;;;;0.50;0.50;;;35.40;25.40;;;;;;5096002;28;20027;-69
2022/07/17 09:00:44;;;;;;;0.63;0.63;;;34.60;25.50;;;;;;5095857;28;20028;-69
2022/07/17 09:03:10;;;;;;;0.35;0.30;;;34.00;25.90;;;;;;5095440;28;20063;-70
2022/07/17 09:05:40;;;;;;;0.68;0.45;;;33.30;26.50;;;;;;5096557;28;20092;-69
2022/07/17 09:08:08;;;;;;;1.75;0.60;;;32.80;26.80;;;;;;5108493;28;20027;-69
2022/07/17 09:10:44;;;;;;;1.02;0.60;;;32.10;27.40;;;;;;5115640;28;20460;-69
2022/07/17 09:13:19;;;;;;;1.27;0.45;;;31.60;27.80;;;;;;5116481;28;20038;-69
2022/07/17 09:15:46;;;;;;;1.13;0.55;;;31.10;28.00;;;;;;5115854;28;20456;-70
2022/07/17 09:18:13;;;;;;;0.75;0.60;;;30.60;28.40;;;;;;5116250;28;20039;-70
2022/07/17 09:20:48;;;;;;;1.58;0.50;;;30.40;28.70;;;;;;5114292;28;20027;-69
2022/07/17 09:23:13;;;;;;;1.17;0.57;;;29.90;28.90;;;;;;5116091;28;20035;-71
2022/07/17 09:25:42;;;;;;;1.67;0.70;;;29.40;29.30;;;;;;5103858;28;20423;-70
2022/07/17 09:28:10;;;;;;;2.63;1.25;;;29.20;29.50;;;;;;5095518;28;20024;-74
2022/07/17 09:30:42;;;;;;;0.80;0.50;;;29.20;29.80;;;;;;5095955;28;20023;-70
2022/07/17 09:33:11;;;;;;;1.05;0.52;;;29.00;30.00;;;;;;5113636;28;20020;-70
2022/07/17 09:35:54;;;;;;;0.60;0.50;;;29.00;30.40;;;;;;5098372;28;20385;-76
2022/07/17 09:38:48;;;;;;;1.40;0.95;;;28.80;30.70;;;;;;5075206;28;20131;-72
2022/07/17 09:41:16;;;;;;;0.80;0.43;;;28.80;30.10;;;;;;5075121;28;20115;-74
2022/07/17 09:43:45;;;;;;;0.43;0.43;;;28.50;30.40;;;;;;5074462;28;20024;-70
2022/07/17 09:46:30;;;;;;;1.42;0.63;;;28.40;30.50;;;;;;5075061;28;20024;-70
2022/07/17 09:48:58;;;;;;;0.60;0.50;;;28.20;30.90;;;;;;5075001;28;20028;-70
2022/07/17 09:51:32;;;;;;;0.52;0.47;;;28.20;31.00;;;;;;5074646;28;20024;-70
2022/07/17 09:54:02;;;;;;;0.40;0.30;;;28.20;31.40;;;;;;5074733;28;20025;-70
2022/07/17 09:56:30;;;;;;;0.98;0.50;;;28.20;31.40;;;;;;5090664;28;20073;-70
2022/07/17 09:59:04;;;;;;;1.02;0.52;;;28.10;31.70;;;;;;5104736;28;20031;-70
2022/07/17 10:01:30;;;;;;;1.70;0.80;;;28.10;31.20;;;;;;5104258;28;20032;-73
2022/07/17 10:03:56;;;;;;;0.60;0.50;;;28.20;31.90;;;;;;5102504;28;20045;-71
2022/07/17 10:06:23;;;;;;;0.43;0.40;;;28.20;31.10;;;;;;5105753;28;20027;-70
2022/07/17 10:08:50;;;;;;;2.80;0.40;;;28.20;31.40;;;;;;5102719;28;20482;-70
2022/07/17 10:11:20;;;;;;;1.20;0.60;;;28.30;31.80;;;;;;5102322;28;20024;-70
2022/07/17 10:13:47;;;;;;;0.75;0.50;;;28.30;31.30;;;;;;5094081;28;20032;-70
2022/07/17 10:16:13;;;;;;;1.00;0.55;;;28.30;31.40;;;;;;5094724;28;20028;-70
2022/07/17 10:18:44;;;;;;;0.70;0.50;;;28.30;31.60;;;;;;5094297;28;20372;-71
2022/07/17 10:21:09;;;;;;;0.70;0.50;;;28.40;32.10;;;;;;5094423;28;20476;-70
2022/07/17 10:23:35;;;;;;;0.65;0.65;;;28.40;31.30;;;;;;5092956;28;20035;-71
2022/07/17 10:26:01;;;;;;;0.50;0.50;;;28.30;31.10;;;;;;5094214;28;20063;-69
2022/07/17 10:28:39;;;;;;;0.75;0.60;;;28.30;31.80;;;;;;5094154;28;20075;-69
2022/07/17 10:31:05;;;;;;;0.85;0.50;;;28.30;31.30;;;;;;5093868;28;20153;-70
2022/07/17 10:33:30;;;;;;;0.70;0.70;;;28.20;31.90;;;;;;5098606;28;20119;-70
2022/07/17 10:35:59;;;;;;;1.23;0.60;;;28.20;32.20;;;;;;5093689;28;20020;-71
2022/07/17 10:38:27;;;;;;;2.13;0.65;;;28.20;32.30;;;;;;5094180;28;20519;-68
2022/07/17 10:41:03;;;;;;;0.65;0.65;;;28.30;32.10;;;;;;5093679;28;20153;-69
2022/07/17 10:43:42;;;;;;;1.52;1.17;;;28.30;31.90;;;;;;5093696;28;20036;-69
2022/07/17 10:46:08;;;;;;;0.75;0.55;;;28.30;31.40;;;;;;5094313;28;20364;-70
2022/07/17 10:48:33;;;;;;;2.20;0.70;;;28.20;31.40;;;;;;5093770;28;20024;-69
2022/07/17 10:50:59;;;;;;;1.90;0.70;;;28.20;31.50;;;;;;5093837;28;20070;-70
2022/07/17 10:53:29;;;;;;;1.95;0.60;;;28.20;32.20;;;;;;5093713;28;20024;-70
2022/07/17 10:56:08;;;;;;;1.57;0.67;;;28.10;31.90;;;;;;5093914;28;20081;-69
2022/07/17 10:58:36;;;;;;;1.88;0.60;;;28.30;32.30;;;;;;5093168;28;20473;-70
2022/07/17 11:01:12;;;;;;;0.90;0.52;;;28.00;31.40;;;;;;5093804;28;20115;-69
2022/07/17 11:03:39;;;;;;;1.00;0.70;;;28.00;32.10;;;;;;5093415;28;20061;-70
2022/07/17 11:06:14;;;;;;;0.60;0.60;;;28.00;32.10;;;;;;5093784;28;20049;-69
2022/07/17 11:08:51;;;;;;;1.77;0.90;;;28.00;31.80;;;;;;5093000;28;20056;-70
2022/07/17 11:11:19;;;;;;;0.75;0.60;;;28.00;32.10;;;;;;5093716;28;20031;-70
2022/07/17 11:13:45;;;;;;;1.48;0.60;;;28.00;31.90;;;;;;5092816;28;20377;-69
2022/07/17 11:16:12;;;;;;;1.65;0.65;;;28.00;31.60;;;;;;5093492;28;20063;-70
2022/07/17 11:18:46;;;;;;;0.73;0.55;;;27.90;31.60;;;;;;5093103;28;20028;-70
2022/07/17 11:21:12;;;;;;;1.90;0.80;;;27.90;32.70;;;;;;5093546;28;20078;-71
2022/07/17 11:23:51;;;;;;;3.80;0.70;;;27.90;32.10;;;;;;5092564;28;20024;-71
2022/07/17 11:26:20;;;;;;;1.00;0.50;;;27.90;31.40;;;;;;5089703;28;20032;-70
2022/07/17 11:28:47;;;;;;;1.05;0.60;;;27.90;32.30;;;;;;5092879;28;20052;-71
2022/07/17 11:31:21;;;;;;;1.23;0.57;;;27.90;31.70;;;;;;5093330;28;20054;-71
2022/07/17 11:33:52;;;;;;;0.90;0.60;;;27.90;31.30;;;;;;5092670;28;20367;-71
2022/07/17 11:36:44;;;;;;;1.13;0.80;;;27.90;30.90;;;;;;5092876;28;20460;-70
2022/07/17 11:39:14;;;;;;;1.38;0.55;;;27.80;30.70;;;;;;5093334;28;20085;-69
2022/07/17 11:41:41;;;;;;;;;;;27.80;31.10;;;;;;5091859;28;20024;-70
2022/07/17 11:44:12;;;;;;;0.52;0.50;;;27.80;30.80;;;;;;5093105;28;19912;-70
2022/07/17 11:46:40;;;;;;;1.90;0.70;;;27.80;30.60;;;;;;5092790;28;20039;-70
2022/07/17 11:49:06;;;;;;;2.88;0.75;;;27.80;31.90;;;;;;5093121;28;20028;-70
2022/07/17 11:51:38;;;;;;;1.27;0.60;;;27.80;30.70;;;;;;5093117;28;20024;-70
2022/07/17 11:54:12;;;;;;;1.17;0.60;;;27.90;30.70;;;;;;5093072;28;20456;-70
2022/07/17 11:56:39;;;;;;;0.50;0.50;;;28.00;30.60;;;;;;5091272;28;20023;-70
2022/07/17 11:59:06;;;;;;;1.00;0.70;;;28.00;30.00;;;;;;5092910;28;20028;-70
2022/07/17 12:01:42;;;;;;;0.90;0.80;;;27.90;29.90;;;;;;5092743;28;20023;-71
2022/07/17 12:04:11;;;;;;;0.57;0.55;;;27.80;29.80;;;;;;5092826;28;20023;-70
2022/07/17 12:06:37;;;;;;;0.73;0.70;;;27.80;29.50;;;;;;5091993;28;20138;-70
2022/07/17 12:09:04;;;;;;;1.92;0.70;;;27.70;29.70;;;;;;5092710;28;20464;-70
2022/07/17 12:11:29;;;;;;;0.60;0.50;;;27.60;29.50;;;;;;5092618;28;20032;-70
2022/07/17 12:14:08;;;;;;;0.60;0.60;;;27.50;28.80;;;;;;5092307;28;20032;-70
2022/07/17 12:16:36;;;;;;;1.50;0.50;;;27.50;29.00;;;;;;5092676;28;20051;-78
2022/07/17 12:19:23;;;;;;;1.20;0.70;;;27.40;29.80;;;;;;5089208;28;20114;-70
2022/07/17 12:22:01;;;;;;;1.00;0.47;;;27.40;30.00;;;;;;5088374;28;20021;-70
2022/07/17 12:24:30;;;;;;;1.02;0.73;;;27.40;30.00;;;;;;5088635;28;20051;-70
2022/07/17 12:26:57;;;;;;;1.02;0.65;;;27.30;29.40;;;;;;5090923;28;20107;-70
2022/07/17 12:29:23;;;;;;;1.92;0.80;;;27.30;29.20;;;;;;5090793;28;20392;-71
2022/07/17 12:32:10;;;;;;;1.15;1.05;;;27.30;29.50;;;;;;5090872;28;20133;-72
2022/07/17 12:34:46;;;;;;;0.95;0.65;;;27.20;29.90;;;;;;5091325;28;20506;-69
2022/07/17 12:37:16;;;;;;;1.10;0.63;;;27.20;30.10;;;;;;5094727;28;20042;-70
2022/07/17 12:39:43;;;;;;;;;;;27.20;31.10;;;;;;5091546;28;20119;-69
2022/07/17 12:42:09;;;;;;;0.43;0.43;;;27.20;30.70;;;;;;5091154;28;20030;-69
2022/07/17 12:44:35;;;;;;;0.77;0.57;;;27.10;31.00;;;;;;5091042;28;20516;-75
2022/07/17 12:47:02;;;;;;;0.98;0.88;;;27.10;31.40;;;;;;5090971;28;20035;-71
2022/07/17 12:49:28;;;;;;;1.30;0.70;;;27.10;31.30;;;;;;5091360;28;20029;-70